TimeMST,TemperatureF,Dew PointF,Humidity,Sea Level PressureIn,VisibilityMPH,Wind Direction,Wind SpeedMPH,Gust SpeedMPH,PrecipitationIn,Events,Conditions,WindDirDegrees,DateUTC
12:15 AM,-7.6,-13.0,77,29.93,10.0,WNW,3.5,-,N/A,,Clear,300,2012-12-31 07:15:00
12:35 AM,-9.4,-14.8,77,29.93,10.0,West,8.1,-,N/A,,Clear,270,2012-12-31 07:35:00
12:55 AM,-11.2,-14.8,84,29.93,10.0,West,4.6,-,N/A,,Clear,280,2012-12-31 07:55:00
1:15 AM,-7.6,-13.0,77,29.93,10.0,West,3.5,-,N/A,,Clear,270,2012-12-31 08:15:00
1:35 AM,-11.2,-16.6,77,29.92,10.0,Calm,Calm,-,N/A,,Clear,0,2012-12-31 08:35:00
1:55 AM,-7.6,-13.0,77,29.92,10.0,Calm,Calm,-,N/A,,Clear,0,2012-12-31 08:55:00
2:15 AM,-11.2,-16.6,77,29.92,10.0,Calm,Calm,-,N/A,,Clear,0,2012-12-31 09:15:00
2:35 AM,-16.6,-22.0,76,29.92,10.0,Calm,Calm,-,N/A,,Clear,0,2012-12-31 09:35:00
2:55 AM,-14.8,-20.2,77,29.92,10.0,Calm,Calm,-,N/A,,Clear,0,2012-12-31 09:55:00
3:15 AM,-13.0,-16.6,84,29.91,10.0,Calm,Calm,-,N/A,,Clear,0,2012-12-31 10:15:00
3:35 AM,-13.0,-18.4,77,29.91,10.0,Calm,Calm,-,N/A,,Clear,0,2012-12-31 10:35:00
3:55 AM,-16.6,-22.0,76,29.91,10.0,West,3.5,-,N/A,,Clear,280,2012-12-31 10:55:00
4:15 AM,-18.4,-25.6,70,29.90,10.0,WNW,4.6,-,N/A,,Clear,290,2012-12-31 11:15:00
4:35 AM,-18.4,-23.8,76,29.90,10.0,WNW,6.9,-,N/A,,Clear,300,2012-12-31 11:35:00
4:55 AM,-14.8,-18.4,84,29.90,10.0,Calm,Calm,-,N/A,,Clear,0,2012-12-31 11:55:00
5:15 AM,-14.8,-18.4,84,29.91,10.0,Calm,Calm,-,N/A,,Clear,0,2012-12-31 12:15:00
5:35 AM,-18.4,-23.8,76,29.90,10.0,Calm,Calm,-,N/A,,Clear,0,2012-12-31 12:35:00
5:55 AM,-18.4,-23.8,76,29.90,10.0,East,3.5,-,N/A,,Clear,100,2012-12-31 12:55:00
6:15 AM,-18.4,-23.8,76,29.90,5.0,Calm,Calm,-,N/A,,Haze,0,2012-12-31 13:15:00
6:35 AM,-18.4,-23.8,76,29.90,10.0,Calm,Calm,-,N/A,,Clear,0,2012-12-31 13:35:00
6:55 AM,-20.2,-25.6,76,29.91,10.0,Calm,Calm,-,N/A,,Clear,0,2012-12-31 13:55:00
7:15 AM,-18.4,-23.8,76,29.91,10.0,Calm,Calm,-,N/A,,Scattered Clouds,0,2012-12-31 14:15:00
7:35 AM,-18.4,-23.8,76,29.92,4.0,Calm,Calm,-,N/A,,Haze,0,2012-12-31 14:35:00
7:55 AM,-18.4,-25.6,70,29.93,10.0,Calm,Calm,-,N/A,,Overcast,0,2012-12-31 14:55:00
8:15 AM,-18.4,-23.8,76,29.93,0.2,Calm,Calm,-,N/A,,Haze,0,2012-12-31 15:15:00
8:35 AM,-16.6,-22.0,76,29.95,0.2,Calm,Calm,-,N/A,,Haze,0,2012-12-31 15:35:00
8:55 AM,-16.6,-22.0,76,29.95,0.8,Calm,Calm,-,N/A,,Haze,0,2012-12-31 15:55:00
9:15 AM,-13.0,-18.4,77,29.95,1.0,Calm,Calm,-,N/A,,Haze,0,2012-12-31 16:15:00
9:35 AM,-13.0,-18.4,77,29.96,10.0,Calm,Calm,-,N/A,,Scattered Clouds,0,2012-12-31 16:35:00
9:55 AM,-9.4,-16.6,71,29.97,10.0,Calm,Calm,-,N/A,,Scattered Clouds,0,2012-12-31 16:55:00
10:15 AM,-7.6,-13.0,77,29.97,10.0,Calm,Calm,-,N/A,,Clear,0,2012-12-31 17:15:00
10:35 AM,-5.8,-11.2,77,29.97,10.0,Calm,Calm,-,N/A,,Clear,0,2012-12-31 17:35:00
10:55 AM,-4.0,-7.6,85,29.97,10.0,Calm,Calm,-,N/A,,Clear,0,2012-12-31 17:55:00
11:15 AM,-0.4,-5.8,78,29.97,10.0,NNW,3.5,-,N/A,,Clear,330,2012-12-31 18:15:00
11:35 AM,1.4,-4.0,78,29.97,10.0,NW,3.5,-,N/A,,Clear,310,2012-12-31 18:35:00
11:55 AM,3.2,-0.4,85,29.95,10.0,Calm,Calm,-,N/A,,Clear,0,2012-12-31 18:55:00
12:15 PM,5.0,1.4,85,29.94,10.0,Calm,Calm,-,N/A,,Clear,0,2012-12-31 19:15:00
12:35 PM,8.6,5.0,85,29.93,10.0,Calm,Calm,-,N/A,,Clear,0,2012-12-31 19:35:00
12:55 PM,8.6,3.2,79,29.92,10.0,Calm,Calm,-,N/A,,Clear,0,2012-12-31 19:55:00
1:15 PM,10.4,5.0,79,29.91,10.0,Calm,Calm,-,N/A,,Clear,0,2012-12-31 20:15:00
1:35 PM,10.4,3.2,73,29.90,10.0,East,4.6,-,N/A,,Clear,100,2012-12-31 20:35:00
1:55 PM,10.4,3.2,73,29.89,10.0,East,5.8,-,N/A,,Clear,100,2012-12-31 20:55:00
2:15 PM,10.4,1.4,67,29.90,10.0,East,5.8,-,N/A,,Clear,100,2012-12-31 21:15:00
2:35 PM,10.4,1.4,67,29.91,10.0,East,3.5,-,N/A,,Clear,80,2012-12-31 21:35:00
2:55 PM,10.4,1.4,67,29.92,10.0,East,3.5,-,N/A,,Clear,100,2012-12-31 21:55:00
3:15 PM,10.4,1.4,67,29.92,10.0,East,3.5,-,N/A,,Clear,90,2012-12-31 22:15:00
3:35 PM,8.6,-0.4,67,29.93,10.0,East,4.6,-,N/A,,Clear,90,2012-12-31 22:35:00
3:55 PM,8.6,-0.4,67,29.93,10.0,ESE,6.9,-,N/A,,Clear,110,2012-12-31 22:55:00
4:15 PM,8.6,-0.4,67,29.93,10.0,East,5.8,-,N/A,,Clear,100,2012-12-31 23:15:00
4:35 PM,5.0,-2.2,72,29.94,10.0,ESE,8.1,-,N/A,,Clear,110,2012-12-31 23:35:00
4:55 PM,3.2,-4.0,72,29.95,10.0,ESE,5.8,-,N/A,,Clear,110,2012-12-31 23:55:00
5:15 PM,1.4,-4.0,78,29.95,10.0,East,5.8,-,N/A,,Clear,100,2013-01-01 00:15:00
5:35 PM,-0.4,-4.0,85,29.95,10.0,SE,3.5,-,N/A,,Clear,130,2013-01-01 00:35:00
5:55 PM,1.4,-4.0,78,29.96,10.0,Calm,Calm,-,N/A,,Clear,0,2013-01-01 00:55:00
6:15 PM,1.4,-4.0,78,29.96,10.0,SSE,3.5,-,N/A,,Clear,160,2013-01-01 01:15:00
6:35 PM,-0.4,-4.0,85,29.97,10.0,Calm,Calm,-,N/A,,Clear,0,2013-01-01 01:35:00
6:55 PM,-5.8,-9.4,84,29.97,10.0,Calm,Calm,-,N/A,,Clear,0,2013-01-01 01:55:00
7:15 PM,-5.8,-7.6,92,29.97,10.0,Calm,Calm,-,N/A,,Clear,0,2013-01-01 02:15:00
7:35 PM,-5.8,-9.4,84,29.96,10.0,Calm,Calm,-,N/A,,Clear,0,2013-01-01 02:35:00
7:55 PM,-7.6,-11.2,84,29.96,10.0,Calm,Calm,-,N/A,,Clear,0,2013-01-01 02:55:00
8:15 PM,-4.0,-7.6,85,29.96,10.0,Calm,Calm,-,N/A,,Clear,0,2013-01-01 03:15:00
8:35 PM,-7.6,-13.0,77,29.95,10.0,NE,8.1,-,N/A,,Clear,40,2013-01-01 03:35:00
8:55 PM,-13.0,-16.6,84,29.96,10.0,Calm,Calm,-,N/A,,Scattered Clouds,0,2013-01-01 03:55:00
9:15 PM,-9.4,-13.0,84,29.97,10.0,ENE,3.5,-,N/A,,Clear,60,2013-01-01 04:15:00
9:35 PM,-11.2,-14.8,84,29.97,10.0,NE,6.9,-,N/A,,Clear,40,2013-01-01 04:35:00
10:15 PM,-7.6,-13.0,77,29.97,10.0,SE,5.8,-,N/A,,Scattered Clouds,130,2013-01-01 05:15:00
10:35 PM,-7.6,-9.4,92,29.97,10.0,SE,5.8,-,N/A,,Scattered Clouds,130,2013-01-01 05:35:00
11:15 PM,-7.6,-11.2,84,30.00,10.0,East,4.6,-,N/A,,Clear,100,2013-01-01 06:15:00
11:35 PM,-9.4,-13.0,84,30.00,10.0,East,5.8,-,N/A,,Clear,100,2013-01-01 06:35:00